Lagrange, Kentucky
Current Conditions -  °F | °C
As of 1:53 AM on Friday 19 Dec 2014 (Local Time) from KLOU Reporting Station
Overcast Overcast  
Wind Chill: 26°   Ceiling: 7500
Heat Index: 31°   Visibility: 9mi
Dew Point: 23°   Wind: 5mph
Humidity: 72%   Direction: 10°N
Pressure: 30.26"   Gusts: NA
Location:  38.4075°N, 85.3786°W
Report Text: KLOU 190653Z AUTO 01004KT 9SM OVC075 M01/M05 A3026 RMK AO2 SLP251 T10061050
Loading
Personal Weather Stations






























Interactive Weather Map New forecast layout! Learn more

10-Day Weather Forecast

Advertisements
Track Severe Weather on mobile